Time;durP1;ratioP1;P1;durP2;ratioP2;P2;SDS_P1;SDS_P2;PMS_P1;PMS_P2;Temp;Humidity;BMP_temperature;BMP_pressure;BME280_temperature;BME280_humidity;BME280_pressure;Samples;Min_cycle;Max_cycle;Signal;HPM_P1;HPM_P2
2021/08/14 00:00:53;;;;;;;;;;;16.30;83.50;;;;;;4994976;28;19922;-71
2021/08/14 00:03:19;;;;;;;;;;;16.30;83.70;;;;;;4994146;28;19922;-70
2021/08/14 00:05:44;;;;;;;;;;;16.20;83.80;;;;;;4995429;28;19967;-71
2021/08/14 00:08:10;;;;;;;;;;;16.20;84.00;;;;;;4994777;28;20012;-70
2021/08/14 00:10:35;;;;;;;;;;;16.20;84.10;;;;;;4995228;28;19990;-71
2021/08/14 00:13:01;;;;;;;;;;;16.10;84.30;;;;;;4995281;28;19918;-71
2021/08/14 00:17:01;;;;;;;;;;;19.60;86.10;;;;;;5072849;27;20320;-71
2021/08/14 00:19:27;;;;;;;;;;;16.00;84.70;;;;;;5068495;28;19999;-70
2021/08/14 00:21:52;;;;;;;;;;;16.00;84.80;;;;;;5067580;28;19925;-71
2021/08/14 00:24:18;;;;;;;;;;;16.00;85.00;;;;;;5067818;28;19924;-70
2021/08/14 00:26:44;;;;;;;;;;;15.90;85.60;;;;;;5067014;28;19916;-70
2021/08/14 00:29:09;;;;;;;;;;;16.00;85.30;;;;;;5067430;28;19916;-71
2021/08/14 00:31:35;;;;;;;;;;;15.90;85.40;;;;;;5068303;28;20388;-71
2021/08/14 00:34:00;;;;;;;;;;;15.90;85.50;;;;;;5067652;28;19917;-71
2021/08/14 00:36:26;;;;;;;;;;;15.90;85.70;;;;;;5068776;28;20056;-71
2021/08/14 00:38:51;;;;;;;;;;;15.90;85.80;;;;;;5066548;28;20396;-70
2021/08/14 00:41:17;;;;;;;;;;;15.80;85.90;;;;;;5050524;28;19920;-75
2021/08/14 00:43:43;;;;;;;;;;;15.80;86.00;;;;;;5067288;28;19920;-71
2021/08/14 00:46:09;;;;;;;;;;;15.70;86.10;;;;;;5066989;28;20377;-71
2021/08/14 00:48:35;;;;;;;;;;;15.70;86.20;;;;;;5066879;28;19917;-71
2021/08/14 00:51:03;;;;;;;;;;;15.70;86.30;;;;;;5032020;28;20358;-71
2021/08/14 00:53:28;;;;;;;;;;;15.70;86.50;;;;;;5047051;28;19921;-71
2021/08/14 00:55:55;;;;;;;;;;;15.70;86.50;;;;;;5030491;28;19921;-71
2021/08/14 00:58:21;;;;;;;;;;;15.60;86.70;;;;;;5046252;28;20377;-71
2021/08/14 01:00:47;;;;;;;;;;;15.60;86.90;;;;;;5048141;28;19917;-71
2021/08/14 01:03:13;;;;;;;;;;;15.60;87.20;;;;;;5068968;23;19925;-61
2021/08/14 01:05:56;;;;;;;;;;;15.50;87.30;;;;;;5047509;28;19928;-61
2021/08/14 01:08:22;;;;;;;;;;;15.50;87.40;;;;;;5047647;28;19917;-61
2021/08/14 01:10:47;;;;;;;;;;;15.50;87.50;;;;;;5047482;28;20353;-61
2021/08/14 01:13:13;;;;;;;;;;;15.50;87.60;;;;;;5047723;28;19913;-61
2021/08/14 01:15:43;;;;;;;;;;;15.50;87.70;;;;;;5047659;28;19932;-61
2021/08/14 01:18:10;;;;;;;;;;;15.50;87.80;;;;;;5045821;28;19944;-61
2021/08/14 01:20:36;;;;;;;;;;;15.50;88.00;;;;;;5047674;28;19917;-61
2021/08/14 01:23:03;;;;;;;;;;;15.50;88.10;;;;;;5047226;28;19999;-61
2021/08/14 01:25:29;;;;;;;;;;;15.50;88.40;;;;;;5047552;28;19917;-61
2021/08/14 01:27:54;;;;;;;;;;;15.50;88.50;;;;;;5036319;28;19917;-61
2021/08/14 01:30:20;;;;;;;;;;;15.60;88.70;;;;;;5033707;28;19998;-61
2021/08/14 01:32:46;;;;;;;;;;;15.60;88.80;;;;;;5034077;28;20000;-61
2021/08/14 01:35:11;;;;;;;;;;;15.50;88.90;;;;;;5032726;28;19921;-61
2021/08/14 01:37:37;;;;;;;;;;;15.60;89.00;;;;;;5031886;28;19919;-61
2021/08/14 01:40:03;;;;;;;;;;;15.60;89.20;;;;;;5034043;28;20012;-61
2021/08/14 01:42:28;;;;;;;;;;;15.60;89.30;;;;;;5033425;28;19961;-61
2021/08/14 01:44:54;;;;;;;;;;;15.60;89.30;;;;;;5033977;28;20024;-61
2021/08/14 01:47:19;;;;;;;;;;;15.60;89.40;;;;;;5033676;28;19920;-61
2021/08/14 01:49:45;;;;;;;;;;;15.60;89.90;;;;;;5033395;28;20389;-61
2021/08/14 01:52:12;;;;;;;;;;;15.60;89.50;;;;;;5033719;28;19917;-61
2021/08/14 01:54:37;;;;;;;;;;;15.60;89.60;;;;;;5033291;28;19917;-61
2021/08/14 01:57:04;;;;;;;;;;;15.60;89.80;;;;;;5032020;28;20004;-61
2021/08/14 01:59:30;;;;;;;;;;;15.60;89.90;;;;;;5033672;28;19924;-61
2021/08/14 02:01:56;;;;;;;;;;;15.60;89.90;;;;;;5038271;28;20000;-61
2021/08/14 02:04:21;;;;;;;;;;;15.60;89.90;;;;;;5028751;28;20055;-61
2021/08/14 02:06:47;;;;;;;;;;;15.60;89.90;;;;;;5053112;28;19948;-61
2021/08/14 02:09:12;;;;;;;;;;;15.60;90.00;;;;;;5052851;28;19928;-61
2021/08/14 02:11:38;;;;;;;;;;;15.60;90.00;;;;;;5053143;28;19921;-61
2021/08/14 02:14:04;;;;;;;;;;;15.60;90.00;;;;;;5052874;28;20356;-61
2021/08/14 02:16:30;;;;;;;;;;;15.60;90.00;;;;;;5035347;28;20416;-61
2021/08/14 02:18:56;;;;;;;;;;;15.60;90.10;;;;;;5035147;28;19999;-61
2021/08/14 02:21:22;;;;;;;;;;;15.60;90.20;;;;;;5052612;28;19917;-61
2021/08/14 02:23:47;;;;;;;;;;;15.60;90.20;;;;;;5053014;28;19917;-61
2021/08/14 02:26:13;;;;;;;;;;;15.50;90.20;;;;;;5035256;28;19917;-61
2021/08/14 02:28:39;;;;;;;;;;;15.50;90.20;;;;;;5052257;28;19917;-61
2021/08/14 02:31:05;;;;;;;;;;;15.60;90.30;;;;;;5052745;28;19917;-61
2021/08/14 02:33:31;;;;;;;;;;;15.60;90.30;;;;;;5052415;28;19917;-61
2021/08/14 02:35:58;;;;;;;;;;;15.60;90.30;;;;;;5052599;28;19925;-61
2021/08/14 02:38:23;;;;;;;;;;;15.60;90.30;;;;;;5051767;28;19925;-61
2021/08/14 02:40:49;;;;;;;;;;;15.60;90.30;;;;;;5052046;28;19970;-62
2021/08/14 02:43:15;;;;;;;;;;;15.60;90.30;;;;;;5034757;28;19921;-61
2021/08/14 02:45:41;;;;;;;;;;;15.50;90.30;;;;;;5052627;28;19916;-61
2021/08/14 02:48:07;;;;;;;;;;;15.50;90.30;;;;;;5033961;28;20323;-61
2021/08/14 02:50:33;;;;;;;;;;;15.50;90.30;;;;;;5052648;28;19992;-61
2021/08/14 02:52:58;;;;;;;;;;;15.50;90.40;;;;;;5052470;28;19963;-61
2021/08/14 02:55:24;;;;;;;;;;;15.50;90.70;;;;;;5051906;28;19921;-61
2021/08/14 02:57:50;;;;;;;;;;;15.50;90.50;;;;;;5052198;28;20364;-61
2021/08/14 03:00:15;;;;;;;;;;;15.40;90.50;;;;;;5051968;28;19924;-61
2021/08/14 03:02:41;;;;;;;;;;;15.50;90.50;;;;;;5034407;28;20002;-61
2021/08/14 03:05:07;;;;;;;;;;;15.50;90.50;;;;;;5052254;28;19917;-61
2021/08/14 03:07:32;;;;;;;;;;;15.40;90.50;;;;;;5051562;28;19956;-61
2021/08/14 03:09:58;;;;;;;;;;;15.40;90.50;;;;;;5034271;28;20377;-61
2021/08/14 03:12:24;;;;;;;;;;;15.40;90.50;;;;;;5052098;28;19999;-61
2021/08/14 03:14:50;;;;;;;;;;;15.40;90.50;;;;;;5051556;28;20011;-61
2021/08/14 03:17:15;;;;;;;;;;;15.30;90.50;;;;;;5051801;28;20384;-61
2021/08/14 03:19:41;;;;;;;;;;;15.20;90.60;;;;;;5052010;28;19917;-61
2021/08/14 03:22:07;;;;;;;;;;;15.20;90.60;;;;;;5033827;28;19929;-61
2021/08/14 03:24:32;;;;;;;;;;;15.20;90.80;;;;;;5051793;28;20385;-61
2021/08/14 03:26:58;;;;;;;;;;;15.20;90.90;;;;;;5033268;28;19920;-61
2021/08/14 03:29:23;;;;;;;;;;;15.20;90.90;;;;;;5033948;28;20353;-61
2021/08/14 03:31:49;;;;;;;;;;;15.30;91.00;;;;;;5051632;28;19920;-61
2021/08/14 03:34:15;;;;;;;;;;;15.30;91.00;;;;;;5033593;28;19916;-61
2021/08/14 03:36:40;;;;;;;;;;;15.30;91.00;;;;;;5051325;28;19925;-61
2021/08/14 03:39:06;;;;;;;;;;;15.40;91.00;;;;;;5051636;28;19917;-61
2021/08/14 03:41:31;;;;;;;;;;;15.40;91.00;;;;;;5050993;28;19966;-61
2021/08/14 03:43:57;;;;;;;;;;;15.40;91.00;;;;;;5051584;28;20004;-61
2021/08/14 03:46:22;;;;;;;;;;;15.40;91.00;;;;;;5033314;28;19998;-62
2021/08/14 03:48:48;;;;;;;;;;;15.40;91.00;;;;;;5033462;28;19970;-61
2021/08/14 03:51:13;;;;;;;;;;;15.50;91.10;;;;;;5051116;28;19916;-61
2021/08/14 03:53:39;;;;;;;;;;;15.50;91.10;;;;;;5050927;28;19916;-61
2021/08/14 03:56:04;;;;;;;;;;;15.50;91.10;;;;;;5051286;28;19935;-61
2021/08/14 03:58:30;;;;;;;;;;;15.50;91.10;;;;;;5051103;28;20000;-61
2021/08/14 04:00:56;;;;;;;;;;;15.60;91.30;;;;;;5051012;28;19916;-61
2021/08/14 04:03:22;;;;;;;;;;;15.60;91.10;;;;;;5051203;28;19920;-61
2021/08/14 04:05:47;;;;;;;;;;;15.60;91.10;;;;;;5050881;28;19924;-62
2021/08/14 04:08:13;;;;;;;;;;;15.60;91.10;;;;;;5050965;28;19920;-61
2021/08/14 04:10:40;;;;;;;;;;;15.60;91.10;;;;;;5051250;28;19924;-61
2021/08/14 04:13:05;;;;;;;;;;;15.60;91.10;;;;;;5050237;28;20003;-61
2021/08/14 04:15:31;;;;;;;;;;;15.70;91.10;;;;;;5051123;28;20015;-61
2021/08/14 04:17:56;;;;;;;;;;;15.70;91.10;;;;;;5051038;28;19952;-61
2021/08/14 04:20:22;;;;;;;;;;;15.70;91.20;;;;;;5050611;28;19924;-61
2021/08/14 04:22:47;;;;;;;;;;;15.70;91.20;;;;;;5051013;28;19913;-61
2021/08/14 04:25:13;;;;;;;;;;;15.70;91.20;;;;;;5051210;28;20487;-61
2021/08/14 04:27:38;;;;;;;;;;;15.80;91.20;;;;;;5050333;28;19917;-61
2021/08/14 04:30:04;;;;;;;;;;;15.80;91.10;;;;;;5051083;28;19948;-61
2021/08/14 04:32:33;;;;;;;;;;;15.80;91.20;;;;;;5050563;28;20265;-61
2021/08/14 04:35:01;;;;;;;;;;;15.80;91.10;;;;;;5050839;28;19924;-61
2021/08/14 04:37:26;;;;;;;;;;;15.90;91.20;;;;;;5032961;28;19986;-61
2021/08/14 04:39:52;;;;;;;;;;;15.90;91.20;;;;;;5032647;28;19917;-61
2021/08/14 04:42:17;;;;;;;;;;;16.00;91.20;;;;;;5050963;28;20357;-61
2021/08/14 04:44:43;;;;;;;;;;;15.90;91.10;;;;;;5033187;28;19913;-61
2021/08/14 04:47:08;;;;;;;;;;;16.00;91.20;;;;;;5050095;28;19971;-61
2021/08/14 04:49:34;;;;;;;;;;;16.00;91.20;;;;;;5032953;28;19924;-61
2021/08/14 04:51:59;;;;;;;;;;;16.10;91.20;;;;;;5050398;28;19967;-61
2021/08/14 04:54:25;;;;;;;;;;;16.10;91.20;;;;;;5050897;28;19986;-61
2021/08/14 04:56:50;;;;;;;;;;;16.10;91.20;;;;;;5032652;28;20004;-61
2021/08/14 04:59:16;;;;;;;;;;;16.20;91.20;;;;;;5032809;28;19917;-61
2021/08/14 05:01:41;;;;;;;;;;;16.20;91.20;;;;;;5051037;28;20015;-61
2021/08/14 05:04:07;;;;;;;;;;;16.30;91.20;;;;;;5054483;28;19957;-61
2021/08/14 05:06:32;;;;;;;;;;;16.40;91.20;;;;;;5054036;28;19917;-61
2021/08/14 05:08:58;;;;;;;;;;;16.40;91.20;;;;;;5054258;28;19963;-61
2021/08/14 05:11:23;;;;;;;;;;;16.50;91.20;;;;;;5054344;28;19924;-61
2021/08/14 05:13:49;;;;;;;;;;;16.60;91.10;;;;;;5053892;28;19920;-61
2021/08/14 05:16:15;;;;;;;;;;;16.70;91.10;;;;;;5054356;28;20413;-61
2021/08/14 05:18:40;;;;;;;;;;;16.80;91.00;;;;;;5053583;28;19917;-61
2021/08/14 05:21:06;;;;;;;;;;;16.80;90.90;;;;;;5054403;28;20004;-61
2021/08/14 05:23:31;;;;;;;;;;;16.90;90.90;;;;;;5036406;28;20304;-61
2021/08/14 05:25:57;;;;;;;;;;;17.00;90.90;;;;;;5053418;28;19939;-61
2021/08/14 05:28:22;;;;;;;;;;;17.00;90.80;;;;;;5053186;28;19970;-61
2021/08/14 05:30:48;;;;;;;;;;;17.00;90.70;;;;;;5053995;28;19921;-61
2021/08/14 05:33:14;;;;;;;;;;;17.10;90.60;;;;;;5053391;28;19921;-61
2021/08/14 05:35:39;;;;;;;;;;;17.20;90.60;;;;;;5053639;28;19963;-61
2021/08/14 05:38:05;;;;;;;;;;;17.20;90.50;;;;;;5052313;28;19916;-62
2021/08/14 05:40:30;;;;;;;;;;;17.30;90.40;;;;;;5053826;28;19916;-62
2021/08/14 05:42:56;;;;;;;;;;;17.40;90.40;;;;;;5053389;28;20008;-61
2021/08/14 05:45:22;;;;;;;;;;;17.40;90.30;;;;;;5053267;28;19916;-62
2021/08/14 05:47:47;;;;;;;;;;;17.50;90.10;;;;;;5019224;28;19941;-61
2021/08/14 05:50:13;;;;;;;;;;;17.60;90.10;;;;;;5053117;28;19949;-61
2021/08/14 05:52:38;;;;;;;;;;;17.70;89.90;;;;;;5053032;28;19921;-63
2021/08/14 05:55:04;;;;;;;;;;;17.80;89.60;;;;;;5053603;28;19931;-63
2021/08/14 05:57:30;;;;;;;;;;;17.80;89.30;;;;;;5053156;28;20335;-63
2021/08/14 05:59:55;;;;;;;;;;;17.90;89.00;;;;;;5053041;28;19912;-63
2021/08/14 06:02:21;;;;;;;;;;;17.90;89.00;;;;;;5053053;28;19921;-64
2021/08/14 06:04:46;;;;;;;;;;;18.00;88.80;;;;;;5052813;28;19916;-64
2021/08/14 06:07:12;;;;;;;;;;;18.10;88.60;;;;;;5052951;28;19920;-63
2021/08/14 06:09:37;;;;;;;;;;;18.20;88.50;;;;;;5053331;28;20381;-64
2021/08/14 06:12:03;;;;;;;;;;;18.30;88.00;;;;;;5052879;28;20343;-63
2021/08/14 06:14:28;;;;;;;;;;;18.40;87.60;;;;;;5052963;28;20292;-63
2021/08/14 06:16:54;;;;;;;;;;;18.40;87.30;;;;;;5052753;28;19927;-64
2021/08/14 06:19:20;;;;;;;;;;;18.60;87.50;;;;;;5052476;28;19975;-63
2021/08/14 06:21:45;;;;;;;;;;;18.60;87.10;;;;;;5052903;28;19948;-63
2021/08/14 06:24:11;;;;;;;;;;;18.80;86.60;;;;;;5035005;28;19933;-63
2021/08/14 06:26:36;;;;;;;;;;;18.80;86.20;;;;;;5032226;28;19923;-63
2021/08/14 06:29:02;;;;;;;;;;;18.90;86.30;;;;;;5014590;28;19996;-63
2021/08/14 06:31:27;;;;;;;;;;;19.10;86.10;;;;;;4995781;28;19917;-63
2021/08/14 06:33:53;;;;;;;;;;;19.30;85.80;;;;;;5032355;28;19952;-63
2021/08/14 06:36:18;;;;;;;;;;;19.60;85.70;;;;;;5032264;28;19968;-63
2021/08/14 06:38:44;;;;;;;;;;;19.90;85.40;;;;;;4996832;28;19925;-64
2021/08/14 06:41:09;;;;;;;;;;;20.20;84.90;;;;;;5014480;28;19917;-63
2021/08/14 06:43:35;;;;;;;;;;;20.50;84.30;;;;;;5014617;28;19944;-63
2021/08/14 06:46:00;;;;;;;;;;;20.80;83.60;;;;;;5031679;28;19917;-64
2021/08/14 06:48:26;;;;;;;;;;;21.10;83.20;;;;;;5020735;28;20288;-63
2021/08/14 06:50:52;;;;;;;;;;;21.40;82.10;;;;;;5014896;28;19929;-64
2021/08/14 06:53:18;;;;;;;;;;;21.60;80.70;;;;;;5015381;28;20022;-64
2021/08/14 06:55:43;;;;;;;;;;;21.60;78.50;;;;;;5016337;28;20408;-64
2021/08/14 06:58:09;;;;;;;;;;;21.60;77.70;;;;;;5034686;28;20380;-64
2021/08/14 07:00:34;;;;;;;;;;;21.50;77.10;;;;;;5016319;28;20003;-63
2021/08/14 07:03:00;;;;;;;;;;;21.50;76.90;;;;;;5040806;23;19937;-70
2021/08/14 07:05:25;;;;;;;;;;;21.60;77.20;;;;;;5042205;28;20373;-69
2021/08/14 07:07:51;;;;;;;;;;;21.70;77.00;;;;;;5038873;28;20291;-69
2021/08/14 07:10:17;;;;;;;;;;;22.00;76.70;;;;;;5039215;28;19917;-69
2021/08/14 07:12:44;;;;;;;;;;;22.30;76.30;;;;;;5043426;28;20284;-70
2021/08/14 07:15:10;;;;;;;;;;;22.50;75.00;;;;;;5040275;28;19920;-68
2021/08/14 07:17:36;;;;;;;;;;;22.70;74.50;;;;;;5042150;28;19974;-70
2021/08/14 07:20:02;;;;;;;;;;;23.00;74.90;;;;;;5049481;28;19920;-69
2021/08/14 07:22:27;;;;;;;;;;;23.20;72.50;;;;;;5045937;28;19925;-69
2021/08/14 07:24:53;;;;;;;;;;;23.40;72.70;;;;;;5033135;28;20348;-69
2021/08/14 07:27:18;;;;;;;;;;;23.80;72.60;;;;;;5040656;28;19966;-69
2021/08/14 07:29:44;;;;;;;;;;;24.30;71.40;;;;;;5040946;28;20550;-69
2021/08/14 07:32:11;;;;;;;;;;;24.50;69.80;;;;;;5010999;28;20011;-69
2021/08/14 07:34:37;;;;;;;;;;;24.60;68.50;;;;;;5011582;28;19925;-68
2021/08/14 07:37:03;;;;;;;;;;;24.80;68.30;;;;;;5010149;28;19933;-70
2021/08/14 07:39:28;;;;;;;;;;;25.50;69.80;;;;;;5010099;28;19913;-70
2021/08/14 07:41:54;;;;;;;;;;;26.90;71.40;;;;;;5011280;28;20296;-69
2021/08/14 07:44:19;;;;;;;;;;;28.70;70.70;;;;;;5009719;28;20274;-67
2021/08/14 07:46:45;;;;;;;;;;;30.50;67.60;;;;;;5009492;28;19917;-69
2021/08/14 07:49:10;;;;;;;;;;;32.00;62.20;;;;;;5009753;28;19987;-69
2021/08/14 07:51:36;;;;;;;;;;;33.40;58.30;;;;;;5010585;28;20325;-69
2021/08/14 07:54:01;;;;;;;;;;;34.80;56.50;;;;;;5011068;28;20328;-70
2021/08/14 07:56:27;;;;;;;;;;;36.00;52.20;;;;;;5011040;28;20369;-72
2021/08/14 07:58:52;;;;;;;;;;;36.70;48.60;;;;;;5010000;28;19918;-70
2021/08/14 08:01:18;;;;;;;;;;;37.40;46.50;;;;;;5009818;28;19922;-72
2021/08/14 08:03:43;;;;;;;;;;;38.00;43.80;;;;;;5009173;28;20381;-71
2021/08/14 08:06:09;;;;;;;;;;;38.30;41.80;;;;;;5011074;28;19921;-72
2021/08/14 08:08:35;;;;;;;;;;;38.30;40.30;;;;;;5008880;28;19925;-71
2021/08/14 08:11:01;;;;;;;;;;;38.50;39.30;;;;;;5010633;28;19957;-72
2021/08/14 08:13:26;;;;;;;;;;;38.80;37.80;;;;;;5011004;28;19921;-72
2021/08/14 08:15:52;;;;;;;;;;;39.10;37.40;;;;;;5011154;28;19929;-62
2021/08/14 08:18:17;;;;;;;;;;;39.70;36.70;;;;;;5008743;28;19972;-62
2021/08/14 08:20:43;;;;;;;;;;;40.20;36.00;;;;;;5010948;28;19975;-63
2021/08/14 08:23:09;;;;;;;;;;;40.60;35.00;;;;;;5010535;28;19980;-63
2021/08/14 08:25:34;;;;;;;;;;;41.10;34.20;;;;;;5011190;28;19929;-63
2021/08/14 08:28:03;;;;;;;;;;;41.40;33.40;;;;;;5010657;28;20351;-62
2021/08/14 08:30:29;;;;;;;;;;;41.60;32.50;;;;;;5009064;28;19928;-63
2021/08/14 08:32:55;;;;;;;;;;;40.70;31.10;;;;;;5010566;28;19918;-62
2021/08/14 08:35:20;;;;;;;;;;;39.30;30.70;;;;;;5010818;28;19925;-62
2021/08/14 08:37:46;;;;;;;;;;;37.80;31.70;;;;;;5012134;28;20325;-62
2021/08/14 08:40:13;;;;;;;;;;;36.90;32.40;;;;;;5014717;28;20000;-62
2021/08/14 08:42:39;;;;;;;;;;;36.30;33.00;;;;;;5014188;28;19917;-62
2021/08/14 08:45:05;;;;;;;;;;;36.50;34.40;;;;;;5014700;28;19924;-62
2021/08/14 08:47:32;;;;;;;;;;;36.90;33.80;;;;;;5014272;28;20012;-62
2021/08/14 08:49:58;;;;;;;;;;;37.50;33.60;;;;;;5012925;28;19921;-63
2021/08/14 08:52:24;;;;;;;;;;;37.50;33.30;;;;;;5014531;28;19925;-63
2021/08/14 08:54:50;;;;;;;;;;;37.40;32.70;;;;;;5030398;28;19925;-64
2021/08/14 08:57:17;;;;;;;;;;;37.30;32.60;;;;;;5043660;28;19932;-64
2021/08/14 08:59:47;;;;;;;;;;;37.50;33.00;;;;;;5044203;28;19920;-64
2021/08/14 09:02:26;;;;;;;;;;;37.90;32.60;;;;;;5043277;28;19956;-64
2021/08/14 09:05:08;;;;;;;;;;;37.50;31.50;;;;;;5044194;28;19924;-63
2021/08/14 09:07:34;;;;;;;;;;;36.60;31.80;;;;;;5028701;28;19917;-64
2021/08/14 09:10:01;;;;;;;;;;;36.00;32.10;;;;;;5041078;28;19914;-64
2021/08/14 09:12:30;;;;;;;;;;;35.10;32.60;;;;;;5045079;28;20288;-64
2021/08/14 09:14:56;;;;;;;;;;;34.90;33.50;;;;;;5042951;28;19924;-68
2021/08/14 09:17:26;;;;;;;;;;;34.50;33.80;;;;;;5042573;28;20442;-70
2021/08/14 09:20:24;;;;;;;;;;;34.30;34.00;;;;;;5038494;28;20392;-70
2021/08/14 09:23:06;;;;;;;;;;;34.60;35.00;;;;;;4992432;28;19925;-69
2021/08/14 09:25:38;;;;;;;;;;;35.20;34.90;;;;;;5022695;28;19917;-70
2021/08/14 09:28:04;;;;;;;;;;;35.20;34.00;;;;;;5039199;28;19917;-69
2021/08/14 09:30:46;;;;;;;;;;;35.50;34.50;;;;;;5042876;28;20349;-70
2021/08/14 09:33:13;;;;;;;;;;;36.70;34.70;;;;;;5040426;28;19924;-70
2021/08/14 09:35:43;;;;;;;;;;;37.30;33.10;;;;;;5041642;28;19991;-70
2021/08/14 09:38:10;;;;;;;;;;;36.80;32.30;;;;;;5040407;28;19921;-70
2021/08/14 09:40:37;;;;;;;;;;;35.70;31.80;;;;;;5042295;28;19921;-68
2021/08/14 09:43:03;;;;;;;;;;;34.40;32.40;;;;;;5044231;28;19982;-69
2021/08/14 09:45:29;;;;;;;;;;;33.40;33.20;;;;;;5042389;28;19924;-69
2021/08/14 09:47:55;;;;;;;;;;;32.30;33.90;;;;;;5042914;28;19921;-68
2021/08/14 09:50:33;;;;;;;;;;;31.40;35.20;;;;;;5043149;28;19921;-70
2021/08/14 09:53:16;;;;;;;;;;;30.80;36.50;;;;;;5042647;28;20312;-68
2021/08/14 09:55:42;;;;;;;;;;;30.60;37.30;;;;;;5043249;28;20012;-63
2021/08/14 09:58:10;;;;;;;;;;;30.00;37.30;;;;;;5044392;28;19944;-62
2021/08/14 10:00:37;;;;;;;;;;;29.70;38.80;;;;;;5042481;28;19953;-62
2021/08/14 10:03:03;;;;;;;;;;;29.70;39.10;;;;;;5044349;28;19928;-63
2021/08/14 10:05:33;;;;;;;;;;;29.40;39.10;;;;;;5042588;28;19917;-62
2021/08/14 10:08:00;;;;;;;;;;;29.00;39.70;;;;;;5042409;28;19917;-61
2021/08/14 10:10:26;;;;;;;;;;;28.60;40.30;;;;;;5039578;28;20384;-62
2021/08/14 10:12:51;;;;;;;;;;;28.20;40.80;;;;;;5040534;28;19932;-62
2021/08/14 10:15:17;;;;;;;;;;;27.80;41.20;;;;;;5007298;28;20407;-62
2021/08/14 10:17:43;;;;;;;;;;;27.20;42.00;;;;;;5034217;28;19961;-61
2021/08/14 10:20:09;;;;;;;;;;;26.80;43.30;;;;;;5037350;28;19940;-61
2021/08/14 10:22:35;;;;;;;;;;;26.70;44.10;;;;;;5051249;28;19917;-62
2021/08/14 10:25:01;;;;;;;;;;;26.70;44.30;;;;;;5053137;28;19928;-62
2021/08/14 10:27:26;;;;;;;;;;;26.60;44.80;;;;;;5051533;28;19917;-62
2021/08/14 10:29:52;;;;;;;;;;;26.60;45.50;;;;;;5047334;28;19924;-67
2021/08/14 10:32:33;;;;;;;;;;;26.70;45.90;;;;;;5033516;28;20389;-63
2021/08/14 10:35:17;;;;;;;;;;;26.70;46.00;;;;;;5032494;28;20000;-62
2021/08/14 10:37:51;;;;;;;;;;;26.60;45.40;;;;;;5032634;28;20006;-61
2021/08/14 10:40:19;;;;;;;;;;;26.40;45.60;;;;;;5031758;28;19917;-62
2021/08/14 10:42:54;;;;;;;;;;;26.40;46.10;;;;;;5031293;28;19921;-61
2021/08/14 10:45:20;;;;;;;;;;;27.10;47.80;;;;;;5031272;28;20027;-63
2021/08/14 10:47:47;;;;;;;;;;;27.40;46.10;;;;;;5032728;28;19916;-62
2021/08/14 10:50:31;;;;;;;;;;;27.40;45.80;;;;;;5031392;28;20017;-62
2021/08/14 10:53:12;;;;;;;;;;;27.30;45.60;;;;;;5032857;28;19949;-60
2021/08/14 10:55:38;;;;;;;;;;;27.00;45.30;;;;;;5031337;28;19921;-61
2021/08/14 10:58:33;;;;;;;;;;;26.60;45.70;;;;;;5032290;28;19967;-61
2021/08/14 11:01:19;;;;;;;;;;;26.30;46.10;;;;;;5021655;28;19996;-62
2021/08/14 11:03:44;;;;;;;;;;;26.00;46.90;;;;;;5025154;28;19921;-62
2021/08/14 11:06:37;;;;;;;;;;;25.90;47.40;;;;;;5032188;28;19929;-61
2021/08/14 11:09:15;;;;;;;;;;;25.90;47.90;;;;;;5029814;28;19976;-62
2021/08/14 11:11:40;;;;;;;;;;;25.80;48.10;;;;;;5041868;28;19960;-61
2021/08/14 11:14:07;;;;;;;;;;;25.90;48.50;;;;;;5029607;28;19967;-62
2021/08/14 11:16:51;;;;;;;;;;;26.00;48.60;;;;;;5011888;28;19948;-62
2021/08/14 11:19:37;;;;;;;;;;;26.10;48.50;;;;;;5011781;28;20474;-61
2021/08/14 11:22:21;;;;;;;;;;;26.40;48.80;;;;;;5011959;28;20293;-62
2021/08/14 11:24:47;;;;;;;;;;;26.60;48.40;;;;;;5020747;28;19916;-62
2021/08/14 11:27:32;;;;;;;;;;;26.80;48.60;;;;;;5051355;28;19913;-61
2021/08/14 11:29:59;;;;;;;;;;;26.90;48.10;;;;;;5045028;28;20297;-61
2021/08/14 11:32:25;;;;;;;;;;;26.70;47.00;;;;;;5019748;28;19917;-62
2021/08/14 11:34:51;;;;;;;;;;;26.30;47.20;;;;;;5023566;28;20461;-61
2021/08/14 11:37:17;;;;;;;;;;;26.10;48.40;;;;;;5025846;28;19921;-62
2021/08/14 11:39:43;;;;;;;;;;;26.20;49.00;;;;;;5022493;28;19923;-62
2021/08/14 11:42:09;;;;;;;;;;;26.70;49.60;;;;;;5044680;28;19927;-62
2021/08/14 11:44:35;;;;;;;;;;;27.30;49.50;;;;;;5051947;28;19916;-62
2021/08/14 11:47:05;;;;;;;;;;;27.80;48.00;;;;;;5051596;28;20625;-61
2021/08/14 11:49:39;;;;;;;;;;;27.80;46.80;;;;;;5043896;28;19916;-61
2021/08/14 11:52:05;;;;;;;;;;;27.40;46.30;;;;;;5031476;28;19923;-61
2021/08/14 11:54:31;;;;;;;;;;;27.10;46.90;;;;;;5028096;28;19921;-62
2021/08/14 11:57:17;;;;;;;;;;;27.00;47.10;;;;;;5029383;28;20365;-61
2021/08/14 11:59:43;;;;;;;;;;;26.70;47.00;;;;;;5038507;28;19948;-62
2021/08/14 12:02:09;;;;;;;;;;;26.40;47.30;;;;;;5041219;28;19967;-62
2021/08/14 12:04:34;;;;;;;;;;;26.10;47.50;;;;;;5046476;28;20359;-61
2021/08/14 12:07:00;;;;;;;;;;;26.00;48.10;;;;;;5049506;28;19917;-61
2021/08/14 12:09:26;;;;;;;;;;;25.90;48.40;;;;;;5051632;28;19917;-62
2021/08/14 12:11:53;;;;;;;;;;;25.90;48.70;;;;;;5050900;28;19921;-62
2021/08/14 12:14:19;;;;;;;;;;;25.80;49.00;;;;;;5051657;28;20074;-61
2021/08/14 12:16:47;;;;;;;;;;;26.00;49.50;;;;;;5052181;28;19982;-62
2021/08/14 12:19:14;;;;;;;;;;;26.10;49.60;;;;;;5051147;28;19994;-61
2021/08/14 12:21:40;;;;;;;;;;;26.30;49.30;;;;;;5051241;28;19917;-62
2021/08/14 12:24:05;;;;;;;;;;;26.40;49.20;;;;;;5051046;28;20399;-65
2021/08/14 12:26:31;;;;;;;;;;;26.40;49.00;;;;;;5051203;28;19916;-62
2021/08/14 12:29:02;;;;;;;;;;;26.20;48.20;;;;;;5051268;28;19986;-61
2021/08/14 12:31:28;;;;;;;;;;;25.80;48.40;;;;;;5050958;28;19986;-62
2021/08/14 12:33:59;;;;;;;;;;;25.60;49.20;;;;;;5050386;28;19917;-61
2021/08/14 12:36:34;;;;;;;;;;;25.70;49.70;;;;;;5034523;28;19928;-60
2021/08/14 12:38:59;;;;;;;;;;;25.70;49.60;;;;;;5033242;28;19918;-61
2021/08/14 12:41:32;;;;;;;;;;;25.60;49.50;;;;;;5029395;28;19921;-61
2021/08/14 12:43:58;;;;;;;;;;;25.50;49.80;;;;;;5030626;28;20348;-62
2021/08/14 12:46:24;;;;;;;;;;;25.50;50.10;;;;;;5029272;28;19925;-61
2021/08/14 12:49:09;;;;;;;;;;;25.50;49.90;;;;;;5029487;28;19927;-62
2021/08/14 12:51:34;;;;;;;;;;;25.40;49.90;;;;;;5030958;28;20372;-62
2021/08/14 12:54:12;;;;;;;;;;;25.30;50.20;;;;;;5030740;28;19973;-61
2021/08/14 12:56:40;;;;;;;;;;;25.30;50.50;;;;;;5029502;28;19927;-61
2021/08/14 12:59:06;;;;;;;;;;;25.40;50.70;;;;;;5030633;28;19917;-62
2021/08/14 13:01:32;;;;;;;;;;;25.70;50.90;;;;;;5031075;28;20381;-61
2021/08/14 13:03:57;;;;;;;;;;;26.30;51.90;;;;;;5031465;28;20289;-69
2021/08/14 13:06:23;;;;;;;;;;;27.10;51.00;;;;;;5030632;28;19921;-70
2021/08/14 13:08:48;;;;;;;;;;;27.40;49.10;;;;;;5029512;28;19925;-69
2021/08/14 13:11:14;;;;;;;;;;;27.20;48.40;;;;;;5030531;28;19917;-68
2021/08/14 13:13:40;;;;;;;;;;;27.00;47.80;;;;;;5029579;28;19921;-71
2021/08/14 13:16:06;;;;;;;;;;;26.60;47.90;;;;;;5029753;28;19927;-70
2021/08/14 13:18:31;;;;;;;;;;;26.30;48.10;;;;;;5030450;28;19996;-69
2021/08/14 13:20:57;;;;;;;;;;;26.10;48.50;;;;;;5031078;28;19924;-69
2021/08/14 13:23:22;;;;;;;;;;;25.90;48.60;;;;;;5031186;28;19913;-69
2021/08/14 13:25:48;;;;;;;;;;;25.60;48.70;;;;;;5034162;28;20374;-70
2021/08/14 13:28:14;;;;;;;;;;;25.50;49.50;;;;;;5016470;28;20297;-70
2021/08/14 13:30:40;;;;;;;;;;;25.60;50.30;;;;;;5034044;28;19917;-69
2021/08/14 13:33:05;;;;;;;;;;;25.80;50.40;;;;;;5034276;28;20443;-70
2021/08/14 13:35:31;;;;;;;;;;;25.80;49.30;;;;;;5033036;28;20020;-70
2021/08/14 13:37:56;;;;;;;;;;;25.70;49.80;;;;;;5033732;28;19940;-69
2021/08/14 13:40:25;;;;;;;;;;;25.70;50.10;;;;;;5034210;28;19971;-69
2021/08/14 13:42:50;;;;;;;;;;;25.70;49.80;;;;;;5034284;28;19921;-70
2021/08/14 13:45:17;;;;;;;;;;;25.80;49.90;;;;;;5033913;28;20001;-69
2021/08/14 13:47:43;;;;;;;;;;;25.70;49.90;;;;;;5033396;28;20584;-69
2021/08/14 13:50:09;;;;;;;;;;;25.70;49.70;;;;;;5033821;28;19949;-70
2021/08/14 13:52:35;;;;;;;;;;;25.60;50.10;;;;;;5032756;28;19917;-70
2021/08/14 13:55:00;;;;;;;;;;;25.70;50.50;;;;;;5032861;28;19975;-70
2021/08/14 13:57:26;;;;;;;;;;;25.70;50.30;;;;;;5033153;28;19921;-69
2021/08/14 13:59:52;;;;;;;;;;;25.70;50.10;;;;;;5033818;28;19917;-70
2021/08/14 14:02:17;;;;;;;;;;;25.50;50.70;;;;;;5033368;28;20285;-70
2021/08/14 14:04:43;;;;;;;;;;;25.40;50.20;;;;;;5033560;28;19924;-71
2021/08/14 14:07:09;;;;;;;;;;;25.10;50.10;;;;;;5033218;28;19948;-70
2021/08/14 14:09:34;;;;;;;;;;;24.90;50.60;;;;;;5015975;28;19917;-70
2021/08/14 14:12:00;;;;;;;;;;;24.80;50.80;;;;;;5033232;28;19982;-70
2021/08/14 14:14:26;;;;;;;;;;;24.70;51.30;;;;;;5033735;28;20412;-69
2021/08/14 14:16:52;;;;;;;;;;;24.70;51.50;;;;;;5031428;28;19920;-68